Weather at Long Beach Airport (Daugherty Field)

Public forecast

Using degrees Fahrenheit for public forecast. Weather courtesy of forecast.io.

Current aviation weather report (METAR) for Long Beach Airport (Daugherty Field)

Retrieved 2022/01/19 21:53 UTC (42 minutes ago):

KLGB 192153Z 31003KT 6SM HZ SCT025 18/10 A3012 RMK AO2 SLP200 T01780100

Aviation forecast (TAF) for Long Beach Airport (Daugherty Field)

Retrieved 2022/01/19 18:36 UTC (4 hours ago):

TAF KLGB 191735Z 1918/2018 VRB04KT 4SM BR OVC030 FM191900 20006KT P6SM SCT017 FM200100 27007KT P6SM SCT250 FM200400 VRB03KT 6SM BR SCT007 SCT250 FM201000 VRB03KT P6SM SCT250